createdAt,value
2019-02-17T00:04:14.319Z,43.2
2019-02-17T00:09:12.829Z,43.2
2019-02-17T00:14:11.547Z,43.2
2019-02-17T00:19:10.263Z,43.3
2019-02-17T00:24:08.949Z,43.3
2019-02-17T00:29:07.475Z,43.4
2019-02-17T00:34:05.960Z,43.3
2019-02-17T00:39:04.528Z,43.3
2019-02-17T00:44:03.289Z,43.3
2019-02-17T00:49:01.956Z,43.4
2019-02-17T00:54:00.671Z,43.4
2019-02-17T00:59:10.572Z,43.6
2019-02-17T01:04:07.429Z,43.6
2019-02-17T01:09:05.781Z,43.7
2019-02-17T01:14:04.439Z,43.7
2019-02-17T01:19:03.106Z,43.8
2019-02-17T01:24:01.664Z,43.8
2019-02-17T01:29:00.280Z,43.9
2019-02-17T01:33:58.907Z,43.9
2019-02-17T01:38:57.439Z,44
2019-02-17T01:43:55.571Z,44.1
2019-02-17T01:48:54.126Z,44.1
2019-02-17T01:53:52.635Z,44.1
2019-02-17T01:58:50.941Z,44.1
2019-02-17T02:03:49.537Z,44.2
2019-02-17T02:08:48.107Z,44.2
2019-02-17T02:13:46.254Z,44.1
2019-02-17T02:18:44.764Z,44
2019-02-17T02:23:42.864Z,44.1
2019-02-17T02:28:41.500Z,44.1
2019-02-17T02:33:39.922Z,44.1
2019-02-17T02:38:38.375Z,44.2
2019-02-17T02:43:37.067Z,44.3
2019-02-17T02:48:35.589Z,44.3
2019-02-17T02:53:34.278Z,44.3
2019-02-17T02:58:32.899Z,44.3
2019-02-17T03:03:31.428Z,44.4
2019-02-17T03:08:29.844Z,44.4
2019-02-17T03:13:27.677Z,44.3
2019-02-17T03:18:26.162Z,44.4
2019-02-17T03:23:24.718Z,44.6
2019-02-17T03:28:23.029Z,44.7
2019-02-17T03:33:21.101Z,44.8
2019-02-17T03:38:19.575Z,44.8
2019-02-17T03:43:17.972Z,44.8
2019-02-17T03:48:16.254Z,44.8
2019-02-17T03:53:14.508Z,44.8
2019-02-17T03:58:12.872Z,44.9
2019-02-17T04:03:11.333Z,44.9
2019-02-17T04:08:09.859Z,44.9
2019-02-17T04:13:08.280Z,44.9
2019-02-17T04:18:06.726Z,45
2019-02-17T04:23:05.245Z,45.1
2019-02-17T04:28:03.731Z,45.1
2019-02-17T04:33:02.194Z,45.2
2019-02-17T04:38:00.860Z,45.2
2019-02-17T04:42:59.269Z,45.2
2019-02-17T04:47:57.788Z,45.3
2019-02-17T04:52:56.468Z,45.5
2019-02-17T04:57:55.016Z,46.3
2019-02-17T05:02:53.802Z,46.6
2019-02-17T05:07:52.486Z,46.8
2019-02-17T05:12:51.155Z,46.8
2019-02-17T05:17:49.934Z,46.9
2019-02-17T05:22:48.714Z,46.8
2019-02-17T05:27:47.622Z,46.8
2019-02-17T05:32:46.544Z,46.7
2019-02-17T05:37:45.431Z,46.7
2019-02-17T05:42:44.247Z,46.6
2019-02-17T05:47:43.147Z,46.4
2019-02-17T05:52:42.034Z,46.3
2019-02-17T05:57:40.917Z,46.1
2019-02-17T06:02:39.858Z,45.9
2019-02-17T06:07:38.699Z,45.9
2019-02-17T06:12:37.939Z,45.9
2019-02-17T06:17:37.284Z,46.3
2019-02-17T06:22:36.075Z,46.3
2019-02-17T06:27:34.496Z,46.5
2019-02-17T06:32:32.923Z,46.6
2019-02-17T06:37:30.980Z,47.3
2019-02-17T06:42:29.814Z,46.9
2019-02-17T06:47:28.330Z,46.9
2019-02-17T06:52:27.250Z,46.9
2019-02-17T06:57:26.887Z,47.1
2019-02-17T07:02:26.218Z,47.5
2019-02-17T07:07:25.732Z,47.9
2019-02-17T07:12:24.885Z,48.6
2019-02-17T07:17:24.050Z,49.3
2019-02-17T07:22:23.263Z,49.9
2019-02-17T07:27:22.568Z,50
2019-02-17T07:32:22.087Z,50
2019-02-17T07:37:32.639Z,49.9
2019-02-17T07:42:30.171Z,49.7
2019-02-17T07:47:29.014Z,50.1
2019-02-17T07:52:28.616Z,49.9
2019-02-17T07:57:27.595Z,49.3
2019-02-17T08:02:26.447Z,48.3
2019-02-17T08:07:25.606Z,46.1
2019-02-17T08:12:24.536Z,45.6
2019-02-17T08:17:23.450Z,44.8
2019-02-17T08:22:22.558Z,44.2
2019-02-17T08:27:21.981Z,44.2
2019-02-17T08:32:20.729Z,44.2
2019-02-17T08:37:19.670Z,44.1
2019-02-17T08:42:18.599Z,44.1
2019-02-17T08:47:17.693Z,44.1
2019-02-17T08:52:16.582Z,44
2019-02-17T08:57:15.795Z,43.9
2019-02-17T09:02:14.806Z,43.8
2019-02-17T09:07:13.804Z,43.6
2019-02-17T09:12:12.076Z,43.5
2019-02-17T09:17:11.104Z,43.4
2019-02-17T09:22:10.050Z,43.3
2019-02-17T09:27:09.011Z,43.2
2019-02-17T09:32:16.881Z,43.1
2019-02-17T09:37:14.469Z,42
2019-02-17T09:42:13.453Z,39.4
2019-02-17T09:47:12.150Z,38.5
2019-02-17T09:52:11.490Z,37.2
2019-02-17T09:57:09.663Z,36.4
2019-02-17T10:02:08.453Z,36.8
2019-02-17T10:07:07.723Z,37.2
2019-02-17T10:12:06.629Z,37.5
2019-02-17T10:17:05.595Z,37.7
2019-02-17T10:22:04.460Z,37.9
2019-02-17T10:27:03.812Z,38.2
2019-02-17T10:32:02.077Z,38.4
2019-02-17T10:37:00.958Z,38.6
2019-02-17T10:41:59.733Z,38.7
2019-02-17T10:46:58.706Z,38.8
2019-02-17T10:51:57.674Z,38.9
2019-02-17T10:56:56.347Z,38.8
2019-02-17T11:01:55.349Z,37.8
2019-02-17T11:06:54.507Z,35.7
2019-02-17T11:11:53.043Z,34.5
2019-02-17T11:16:49.014Z,29.5
2019-02-17T11:21:41.137Z,36.3
2019-02-17T11:26:38.314Z,38.3
2019-02-17T11:31:36.653Z,39.1
2019-02-17T11:36:34.581Z,36.8
2019-02-17T11:41:32.828Z,37.8
2019-02-17T11:46:30.933Z,38.2
2019-02-17T11:51:28.810Z,36.3
2019-02-17T11:56:26.595Z,37.8
2019-02-17T12:01:25.550Z,39.1
2019-02-17T12:06:23.349Z,37.6
2019-02-17T12:11:21.221Z,38.5
2019-02-17T12:16:19.053Z,38.8
2019-02-17T12:21:17.028Z,38.2
2019-02-17T12:26:15.168Z,37.5
2019-02-17T12:31:12.945Z,37.1
2019-02-17T12:36:10.850Z,35
2019-02-17T12:41:08.100Z,35.4
2019-02-17T12:46:05.500Z,34.8
2019-02-17T12:51:03.074Z,36.1
2019-02-17T12:56:00.370Z,35.7
2019-02-17T13:00:57.971Z,36.6
2019-02-17T13:05:55.859Z,36.7
2019-02-17T13:10:53.036Z,34.6
2019-02-17T13:15:50.762Z,35
2019-02-17T13:20:47.649Z,36.3
2019-02-17T13:25:44.994Z,34.3
2019-02-17T13:30:42.484Z,34.6
2019-02-17T13:35:39.222Z,35.7
2019-02-17T13:40:36.209Z,37.3
2019-02-17T13:45:33.060Z,36.4
2019-02-17T13:50:30.479Z,34.9
2019-02-17T13:55:27.547Z,38.4
2019-02-17T14:00:24.066Z,38.4
2019-02-17T14:05:20.593Z,36.8
2019-02-17T14:10:17.974Z,37.6
2019-02-17T14:15:14.669Z,37.8
2019-02-17T14:20:11.453Z,37.7
2019-02-17T14:25:07.986Z,39.1
2019-02-17T14:30:04.190Z,39.4
2019-02-17T14:35:01.073Z,39.9
2019-02-17T14:39:57.394Z,41
2019-02-17T14:44:53.373Z,42.2
2019-02-17T14:49:49.833Z,43.4
2019-02-17T14:54:46.177Z,43.4
2019-02-17T14:59:42.406Z,43.6
2019-02-17T15:04:38.230Z,45.1
2019-02-17T15:09:34.813Z,45.2
2019-02-17T15:14:31.149Z,45.7
2019-02-17T15:19:27.587Z,45.9
2019-02-17T15:24:23.521Z,47.2
2019-02-17T15:29:19.379Z,47.4
2019-02-17T15:34:19.137Z,47.5
2019-02-17T15:39:14.845Z,48.8
2019-02-17T15:44:11.495Z,49.6
2019-02-17T15:49:07.876Z,49.8
2019-02-17T15:54:04.301Z,50.5
2019-02-17T15:59:00.753Z,53.7
2019-02-17T16:03:57.064Z,52.2
2019-02-17T16:08:53.593Z,56.3
2019-02-17T16:13:49.265Z,55.5
2019-02-17T16:18:45.714Z,56.7
2019-02-17T16:23:41.901Z,57.7
2019-02-17T16:28:38.607Z,58.3
2019-02-17T16:33:35.307Z,56.8
2019-02-17T16:38:32.056Z,57.1
2019-02-17T16:43:28.506Z,57.5
2019-02-17T16:48:24.461Z,56.4
2019-02-17T16:53:21.160Z,55.8
2019-02-17T16:58:17.876Z,55.2
2019-02-17T17:03:14.400Z,55.8
2019-02-17T17:08:10.989Z,56.1
2019-02-17T17:13:07.237Z,56.5
2019-02-17T17:18:03.608Z,56.7
2019-02-17T17:23:00.083Z,57.2
2019-02-17T17:27:56.758Z,58
2019-02-17T17:32:53.482Z,57.3
2019-02-17T17:37:50.010Z,57.9
2019-02-17T17:42:46.552Z,58.2
2019-02-17T17:47:43.340Z,59
2019-02-17T17:52:39.913Z,59.3
2019-02-17T17:57:36.244Z,60.6
2019-02-17T18:02:32.973Z,60.3
2019-02-17T18:07:29.689Z,60.5
2019-02-17T18:12:26.514Z,61
2019-02-17T18:17:23.265Z,60.9
2019-02-17T18:22:19.670Z,62.5
2019-02-17T18:27:15.617Z,63
2019-02-17T18:32:12.070Z,63.6
2019-02-17T18:37:08.597Z,64.1
2019-02-17T18:42:05.223Z,64.8
2019-02-17T18:47:01.092Z,64.7
2019-02-17T18:51:57.765Z,65.6
2019-02-17T18:56:54.398Z,65.4
2019-02-17T19:01:50.955Z,65.8
2019-02-17T19:06:47.567Z,65.6
2019-02-17T19:11:44.746Z,65.8
2019-02-17T19:16:41.385Z,66
2019-02-17T19:21:37.587Z,66.5
2019-02-17T19:26:34.436Z,66.5
2019-02-17T19:31:30.817Z,66.5
2019-02-17T19:36:27.592Z,67.3
2019-02-17T19:41:23.387Z,67.2
2019-02-17T19:46:20.201Z,67
2019-02-17T19:51:16.717Z,68.4
2019-02-17T19:56:13.308Z,68.3
2019-02-17T20:01:09.769Z,69.2
2019-02-17T20:06:06.350Z,70.9
2019-02-17T20:11:02.981Z,71.3
2019-02-17T20:15:59.551Z,70.2
2019-02-17T20:20:56.213Z,70.7
2019-02-17T20:25:52.276Z,70.7
2019-02-17T20:30:49.063Z,71.9
2019-02-17T20:35:45.831Z,71.5
2019-02-17T20:40:42.372Z,72.1
2019-02-17T20:45:38.977Z,72.1
2019-02-17T20:50:35.730Z,71.6
2019-02-17T20:55:32.447Z,72.5
2019-02-17T21:00:29.215Z,72.7
2019-02-17T21:05:25.865Z,72.8
2019-02-17T21:10:21.924Z,73.5
2019-02-17T21:15:18.461Z,73.2
2019-02-17T21:20:15.154Z,73.7
2019-02-17T21:25:11.771Z,73.7
2019-02-17T21:30:08.234Z,74.2
2019-02-17T21:35:04.870Z,74.4
2019-02-17T21:40:01.506Z,74.4
2019-02-17T21:44:58.354Z,74.3
2019-02-17T21:49:54.916Z,74.7
2019-02-17T21:54:51.775Z,75.3
2019-02-17T21:59:48.416Z,73.7
2019-02-17T22:04:44.773Z,75.2
2019-02-17T22:09:41.296Z,74.9
2019-02-17T22:14:37.134Z,75.2
2019-02-17T22:19:33.767Z,75.8
2019-02-17T22:24:30.146Z,75.2
2019-02-17T22:29:26.635Z,76.2
2019-02-17T22:34:23.087Z,76.9
2019-02-17T22:39:19.119Z,76.8
2019-02-17T22:44:15.626Z,78.2
2019-02-17T22:49:12.036Z,77.5
2019-02-17T22:54:08.754Z,77.9
2019-02-17T22:59:05.350Z,76.7
2019-02-17T23:04:01.479Z,76.1
2019-02-17T23:08:58.056Z,77.8
2019-02-17T23:13:54.751Z,76.4
2019-02-17T23:18:51.235Z,78.2
2019-02-17T23:23:47.885Z,77.7
2019-02-17T23:28:44.328Z,77.3
2019-02-17T23:33:41.075Z,77.3
2019-02-17T23:38:37.693Z,77.2
2019-02-17T23:43:34.137Z,76.9
2019-02-17T23:48:30.433Z,78.9
2019-02-17T23:53:27.052Z,79.5
2019-02-17T23:58:23.330Z,79.3
